Time;durP1;ratioP1;P1;durP2;ratioP2;P2;SDS_P1;SDS_P2;PMS_P1;PMS_P2;Temp;Humidity;BMP_temperature;BMP_pressure;BME280_temperature;BME280_humidity;BME280_pressure;Samples;Min_cycle;Max_cycle;Signal;HPM_P1;HPM_P2
2023/06/08 00:01:58;;;;;;;13.68;9.27;;;18.30;90.10;;;;;;4994450;28;20073;-83
2023/06/08 00:04:25;;;;;;;12.90;9.23;;;18.20;90.40;;;;;;4995901;28;20096;-83
2023/06/08 00:06:52;;;;;;;12.70;8.98;;;18.20;89.70;;;;;;4977327;28;20022;-83
2023/06/08 00:09:18;;;;;;;18.02;11.32;;;18.10;89.30;;;;;;4978404;28;20037;-82
2023/06/08 00:11:43;;;;;;;17.38;11.30;;;18.00;92.10;;;;;;4977635;28;20041;-82
2023/06/08 00:14:09;;;;;;;15.02;10.82;;;17.90;92.90;;;;;;4979373;28;20073;-81
2023/06/08 00:16:34;;;;;;;14.52;10.57;;;17.80;92.40;;;;;;4992111;28;20084;-82
2023/06/08 00:19:01;;;;;;;14.68;10.82;;;17.80;90.90;;;;;;4975814;28;20033;-83
2023/06/08 00:21:29;;;;;;;15.27;10.15;;;17.70;91.10;;;;;;4981340;28;20053;-82
2023/06/08 00:23:55;;;;;;;13.35;9.82;;;17.70;91.70;;;;;;4976765;28;20109;-82
2023/06/08 00:26:21;;;;;;;10.52;9.43;;;17.60;91.30;;;;;;4995676;28;20361;-83
2023/06/08 00:28:50;;;;;;;13.90;10.13;;;17.60;92.00;;;;;;4977381;28;20038;-82
2023/06/08 00:31:16;;;;;;;15.68;9.70;;;17.50;93.40;;;;;;4991058;28;20033;-82
2023/06/08 00:33:41;;;;;;;17.25;10.25;;;17.50;91.90;;;;;;5008731;28;20394;-81
2023/06/08 00:36:07;;;;;;;14.20;9.50;;;17.40;94.50;;;;;;4989520;28;20394;-82
2023/06/08 00:38:34;;;;;;;15.93;10.10;;;17.40;93.20;;;;;;4972415;28;20034;-82
2023/06/08 00:41:00;;;;;;;14.18;9.38;;;17.30;92.70;;;;;;4957829;28;20033;-82
2023/06/08 00:43:26;;;;;;;17.17;9.57;;;17.30;93.70;;;;;;4960747;28;20026;-83
2023/06/08 00:45:51;;;;;;;15.90;9.98;;;17.30;92.90;;;;;;4961556;28;20038;-84
2023/06/08 00:48:17;;;;;;;19.15;10.65;;;17.30;93.30;;;;;;4991332;28;20056;-83
2023/06/08 00:50:43;;;;;;;19.35;9.35;;;17.30;94.00;;;;;;4954154;28;20031;-83
2023/06/08 00:53:08;;;;;;;20.40;11.00;;;17.20;93.30;;;;;;4959925;28;20029;-83
2023/06/08 00:55:34;;;;;;;19.02;9.07;;;17.30;94.20;;;;;;4973090;28;20093;-83
2023/06/08 00:58:01;;;;;;;18.95;9.75;;;17.30;93.60;;;;;;4956948;28;20041;-81
2023/06/08 01:00:27;;;;;;;16.02;8.80;;;17.30;93.30;;;;;;4956355;28;20530;-82
2023/06/08 01:02:55;;;;;;;14.70;9.27;;;17.30;93.70;;;;;;4965681;28;20088;-82
2023/06/08 01:05:21;;;;;;;16.88;9.30;;;17.20;94.20;;;;;;4988409;28;20030;-81
2023/06/08 01:08:19;;;;;;;18.00;9.30;;;17.20;94.20;;;;;;4978575;28;20626;-82
2023/06/08 01:11:03;;;;;;;19.95;9.98;;;17.20;95.10;;;;;;4915618;28;20031;-82
2023/06/08 01:13:48;;;;;;;18.33;9.57;;;17.20;93.90;;;;;;4955495;28;20042;-82
2023/06/08 01:16:15;;;;;;;18.77;9.15;;;17.10;93.70;;;;;;4970975;28;20546;-81
2023/06/08 01:18:41;;;;;;;15.32;8.40;;;17.10;93.80;;;;;;4967738;28;20021;-81
2023/06/08 01:21:30;;;;;;;18.52;9.27;;;17.10;94.00;;;;;;4960358;28;20121;-81
2023/06/08 01:24:14;;;;;;;17.25;8.73;;;17.00;94.50;;;;;;4968294;28;20034;-82
2023/06/08 01:26:41;;;;;;;12.93;8.55;;;17.00;94.80;;;;;;4977207;28;20446;-81
2023/06/08 01:29:08;;;;;;;22.63;9.73;;;16.90;94.90;;;;;;4953570;28;20515;-81
2023/06/08 01:31:34;;;;;;;17.48;9.85;;;16.90;94.80;;;;;;4970995;28;20030;-81
2023/06/08 01:34:00;;;;;;;17.20;9.68;;;16.80;95.20;;;;;;4955021;28;20030;-81
2023/06/08 01:36:33;;;;;;;14.82;9.48;;;16.80;94.90;;;;;;4971570;28;20027;-81
2023/06/08 01:39:29;;;;;;;16.92;8.70;;;16.80;94.90;;;;;;4986973;28;20521;-82
2023/06/08 01:41:55;;;;;;;15.70;9.98;;;16.80;95.10;;;;;;4983032;28;20580;-81
2023/06/08 01:44:21;;;;;;;18.60;9.63;;;16.80;95.30;;;;;;4978163;28;20030;-80
2023/06/08 01:46:54;;;;;;;16.30;8.90;;;16.80;95.50;;;;;;4977492;28;20391;-80
2023/06/08 01:49:20;;;;;;;16.45;9.40;;;16.70;95.30;;;;;;4990871;28;20040;-80
2023/06/08 01:51:45;;;;;;;24.52;9.68;;;16.70;94.90;;;;;;4961170;28;20030;-80
2023/06/08 01:54:11;;;;;;;19.25;9.45;;;16.70;94.90;;;;;;4974246;28;20829;-80
2023/06/08 01:56:36;;;;;;;12.35;9.38;;;16.60;95.30;;;;;;4955659;28;20030;-80
2023/06/08 01:59:02;;;;;;;15.60;9.10;;;16.50;95.20;;;;;;4972533;28;20038;-80
2023/06/08 02:01:28;;;;;;;15.77;9.15;;;16.50;95.60;;;;;;4991901;28;20034;-81
2023/06/08 02:03:53;;;;;;;18.10;9.45;;;16.40;96.70;;;;;;4955742;28;20022;-80
2023/06/08 02:06:19;;;;;;;16.98;8.85;;;16.40;96.10;;;;;;4962777;28;20102;-81
2023/06/08 02:08:45;;;;;;;17.35;9.65;;;16.40;95.60;;;;;;4978926;28;20025;-81
2023/06/08 02:11:10;;;;;;;19.67;9.80;;;16.40;95.10;;;;;;4987926;28;20034;-81
2023/06/08 02:13:42;;;;;;;18.08;9.88;;;16.30;95.30;;;;;;4979158;28;20029;-81
2023/06/08 02:16:08;;;;;;;18.02;9.20;;;16.30;95.20;;;;;;4975195;28;20110;-81
2023/06/08 02:18:35;;;;;;;21.02;8.80;;;16.20;97.10;;;;;;4977073;28;20783;-81
2023/06/08 02:21:02;;;;;;;22.10;9.65;;;16.10;95.80;;;;;;4963793;28;20525;-78
2023/06/08 02:23:28;;;;;;;16.75;9.63;;;16.10;96.30;;;;;;4952538;28;20465;-82
2023/06/08 02:25:54;;;;;;;18.83;10.45;;;16.00;96.80;;;;;;4985065;28;20081;-81
2023/06/08 02:28:20;;;;;;;15.63;8.65;;;15.90;96.90;;;;;;4963135;28;20033;-80
2023/06/08 02:30:46;;;;;;;19.67;9.20;;;15.80;95.60;;;;;;4957610;28;20055;-81
2023/06/08 02:33:11;;;;;;;18.45;9.10;;;15.80;95.80;;;;;;4958310;28;20450;-81
2023/06/08 02:35:37;;;;;;;21.35;10.45;;;15.70;95.90;;;;;;4961473;28;20026;-81
2023/06/08 02:38:03;;;;;;;20.17;9.80;;;15.70;97.00;;;;;;4976715;28;20131;-81
2023/06/08 02:40:29;;;;;;;19.85;10.43;;;15.60;97.90;;;;;;4979282;28;20753;-80
2023/06/08 02:42:54;;;;;;;17.50;10.13;;;15.60;97.00;;;;;;4967146;28;20044;-81
2023/06/08 02:45:20;;;;;;;21.95;9.95;;;15.50;98.10;;;;;;4952178;28;20077;-78
2023/06/08 02:47:46;;;;;;;18.50;10.05;;;15.50;96.10;;;;;;4972430;28;20045;-78
2023/06/08 02:50:11;;;;;;;21.40;9.07;;;15.40;98.30;;;;;;4975108;28;20118;-77
2023/06/08 02:52:37;;;;;;;17.00;9.43;;;15.40;97.70;;;;;;4961631;28;20486;-78
2023/06/08 02:55:03;;;;;;;13.52;9.50;;;15.40;96.60;;;;;;4957017;28;20057;-78
2023/06/08 02:57:29;;;;;;;16.17;9.85;;;15.30;97.70;;;;;;4978650;28;20050;-78
2023/06/08 02:59:55;;;;;;;20.30;9.80;;;15.20;97.50;;;;;;4974930;28;20624;-78
2023/06/08 03:02:20;;;;;;;21.35;9.50;;;15.20;98.50;;;;;;4988743;28;20544;-78
2023/06/08 03:04:46;;;;;;;20.17;9.88;;;15.10;99.90;;;;;;4976058;28;20030;-79
2023/06/08 03:07:15;;;;;;;20.02;10.35;;;15.00;96.90;;;;;;4978227;28;20088;-78
2023/06/08 03:09:40;;;;;;;16.55;9.85;;;14.90;97.50;;;;;;4975521;28;20034;-79
2023/06/08 03:12:08;;;;;;;21.35;10.23;;;14.90;98.50;;;;;;4978676;28;20041;-79
2023/06/08 03:14:34;;;;;;;19.73;10.63;;;14.90;97.80;;;;;;4961428;28;20540;-79
2023/06/08 03:17:02;;;;;;;20.25;9.52;;;14.90;98.00;;;;;;4973026;28;20034;-79
2023/06/08 03:19:30;;;;;;;22.83;10.05;;;14.90;99.90;;;;;;4973332;28;20033;-79
2023/06/08 03:21:58;;;;;;;17.27;10.40;;;14.80;99.10;;;;;;4959028;28;20034;-78
2023/06/08 03:24:24;;;;;;;16.20;10.27;;;14.70;98.20;;;;;;4974118;28;20053;-78
2023/06/08 03:26:50;;;;;;;22.35;11.55;;;14.70;99.90;;;;;;4976549;28;20394;-78
2023/06/08 03:29:15;;;;;;;24.55;11.40;;;14.80;99.90;;;;;;4977396;28;20035;-79
2023/06/08 03:31:42;;;;;;;21.45;10.65;;;14.70;99.90;;;;;;4961581;28;20030;-78
2023/06/08 03:34:07;;;;;;;25.63;11.50;;;14.60;99.90;;;;;;4971750;28;20562;-78
2023/06/08 03:36:38;;;;;;;27.35;10.05;;;14.60;99.90;;;;;;4958905;28;20061;-78
2023/06/08 03:39:04;;;;;;;19.45;10.38;;;14.60;99.90;;;;;;4975761;28;20528;-78
2023/06/08 03:41:30;;;;;;;15.38;10.30;;;14.50;99.60;;;;;;4972539;28;20037;-79
2023/06/08 03:43:56;;;;;;;26.58;10.32;;;14.40;99.40;;;;;;4956889;28;20402;-79
2023/06/08 03:46:21;;;;;;;14.88;10.00;;;14.40;99.90;;;;;;4974566;28;20045;-79
2023/06/08 03:48:50;;;;;;;19.92;10.15;;;14.40;99.90;;;;;;4958304;28;20030;-79
2023/06/08 03:51:17;;;;;;;20.10;11.43;;;14.40;99.90;;;;;;4988734;28;20034;-79
2023/06/08 03:53:43;;;;;;;17.95;10.68;;;14.30;99.90;;;;;;4974761;28;20485;-79
2023/06/08 03:56:08;;;;;;;20.83;11.23;;;14.40;99.90;;;;;;4974738;28;20179;-79
2023/06/08 03:58:34;;;;;;;18.60;10.38;;;14.40;99.90;;;;;;4964154;28;20022;-79
2023/06/08 04:00:59;;;;;;;24.25;11.45;;;14.40;99.90;;;;;;4973204;28;20037;-79
2023/06/08 04:03:26;;;;;;;16.48;9.98;;;14.30;99.90;;;;;;4977942;28;20033;-79
2023/06/08 04:05:52;;;;;;;19.30;10.20;;;14.40;99.90;;;;;;4952116;28;20027;-79
2023/06/08 04:08:18;;;;;;;16.73;10.68;;;14.40;99.90;;;;;;4969210;28;20034;-79
2023/06/08 04:10:44;;;;;;;18.17;11.43;;;14.40;99.90;;;;;;4970638;28;20030;-78
2023/06/08 04:13:10;;;;;;;22.10;11.57;;;14.40;99.90;;;;;;4972702;28;20037;-78
2023/06/08 04:15:35;;;;;;;19.83;10.68;;;14.30;99.90;;;;;;4974419;28;20030;-78
2023/06/08 04:18:05;;;;;;;25.33;12.07;;;14.30;99.90;;;;;;4987942;28;20080;-80
2023/06/08 04:20:31;;;;;;;21.38;11.60;;;14.20;99.90;;;;;;4985907;28;20429;-80
2023/06/08 04:22:57;;;;;;;24.85;12.27;;;14.20;99.90;;;;;;4987578;28;20038;-80
2023/06/08 04:25:26;;;;;;;21.75;12.32;;;14.30;99.90;;;;;;4957883;28;20041;-80
2023/06/08 04:27:52;;;;;;;18.88;11.25;;;14.30;99.90;;;;;;4960684;28;20034;-81
2023/06/08 04:30:18;;;;;;;19.15;11.57;;;14.30;99.90;;;;;;4959076;28;20501;-80
2023/06/08 04:32:44;;;;;;;25.85;11.45;;;14.30;99.90;;;;;;4975511;28;20402;-81
2023/06/08 04:35:15;;;;;;;18.00;11.25;;;14.30;99.90;;;;;;4990758;28;20743;-80
2023/06/08 04:37:41;;;;;;;20.33;10.98;;;14.30;99.90;;;;;;4973128;28;20061;-81
2023/06/08 04:40:09;;;;;;;19.55;11.60;;;14.30;99.90;;;;;;4974506;28;20473;-80
2023/06/08 04:42:39;;;;;;;21.73;12.30;;;14.40;99.90;;;;;;4977391;28;20833;-80
2023/06/08 04:45:07;;;;;;;17.58;11.15;;;14.40;99.90;;;;;;4955558;28;20030;-80
2023/06/08 04:47:36;;;;;;;15.40;10.88;;;14.50;99.90;;;;;;4966320;28;20033;-81
2023/06/08 04:50:07;;;;;;;24.02;10.48;;;14.50;99.90;;;;;;4987694;28;20033;-80
2023/06/08 04:52:40;;;;;;;18.55;10.82;;;14.60;99.90;;;;;;4941819;28;20508;-80
2023/06/08 04:55:07;;;;;;;27.80;11.90;;;14.60;99.90;;;;;;4943261;28;20037;-81
2023/06/08 04:57:33;;;;;;;20.15;11.52;;;14.70;99.90;;;;;;4966689;28;20530;-80
2023/06/08 04:59:59;;;;;;;21.23;11.48;;;14.70;99.90;;;;;;4967799;28;20039;-80
2023/06/08 05:02:25;;;;;;;21.73;11.02;;;14.80;99.80;;;;;;4958281;28;20050;-80
2023/06/08 05:04:50;;;;;;;16.65;10.13;;;14.80;99.90;;;;;;4938587;28;20038;-81
2023/06/08 05:07:16;;;;;;;15.25;8.73;;;14.80;99.90;;;;;;4974700;28;20053;-80
2023/06/08 05:09:41;;;;;;;22.17;10.80;;;14.90;99.70;;;;;;4991693;28;20716;-81
2023/06/08 05:12:07;;;;;;;18.85;10.65;;;14.90;99.90;;;;;;4975619;28;20034;-80
2023/06/08 05:14:33;;;;;;;18.63;11.70;;;15.00;99.90;;;;;;4988796;28;20397;-81
2023/06/08 05:16:59;;;;;;;22.05;10.27;;;15.00;99.90;;;;;;4987276;28;20065;-81
2023/06/08 05:19:24;;;;;;;23.02;12.13;;;14.90;99.90;;;;;;4973654;28;20335;-80
2023/06/08 05:21:50;;;;;;;20.85;11.68;;;15.00;99.90;;;;;;4971902;28;20091;-80
2023/06/08 05:24:15;;;;;;;18.00;10.48;;;15.10;99.90;;;;;;4960284;28;20076;-81
2023/06/08 05:26:42;;;;;;;16.27;10.63;;;15.20;99.90;;;;;;4970407;28;20060;-80
2023/06/08 05:29:08;;;;;;;17.70;11.48;;;15.30;99.90;;;;;;4972929;28;20034;-80
2023/06/08 05:31:34;;;;;;;19.13;11.45;;;15.20;99.90;;;;;;4969691;28;20087;-80
2023/06/08 05:33:59;;;;;;;16.65;11.10;;;15.30;99.90;;;;;;4967375;28;20054;-80
2023/06/08 05:36:25;;;;;;;20.17;11.38;;;15.40;99.90;;;;;;4970869;28;20030;-80
2023/06/08 05:38:50;;;;;;;19.13;12.57;;;15.50;99.90;;;;;;4953054;28;20030;-79
2023/06/08 05:41:16;;;;;;;24.42;12.15;;;15.50;99.90;;;;;;4973963;28;20029;-81
2023/06/08 05:43:42;;;;;;;16.85;10.52;;;15.60;99.90;;;;;;5006012;28;20030;-76
2023/06/08 05:46:08;;;;;;;19.35;10.68;;;15.50;99.90;;;;;;4958133;28;20761;-76
2023/06/08 05:48:33;;;;;;;20.17;11.15;;;15.60;99.90;;;;;;4960660;28;20139;-77
2023/06/08 05:50:59;;;;;;;19.13;11.52;;;15.60;99.90;;;;;;4957875;28;20054;-77
2023/06/08 05:53:25;;;;;;;24.77;11.20;;;15.70;99.90;;;;;;4955850;28;20026;-76
2023/06/08 05:55:50;;;;;;;17.50;10.80;;;15.70;99.90;;;;;;4975255;28;20022;-77
2023/06/08 05:58:17;;;;;;;19.08;11.80;;;15.80;99.90;;;;;;4991810;28;20109;-76
2023/06/08 06:00:42;;;;;;;14.63;11.25;;;15.90;99.90;;;;;;4986675;28;20030;-76
2023/06/08 06:03:08;;;;;;;18.25;11.15;;;15.90;99.90;;;;;;4974401;28;20096;-76
2023/06/08 06:05:33;;;;;;;22.08;11.30;;;16.10;99.90;;;;;;4975527;28;20041;-78
2023/06/08 06:07:59;;;;;;;19.45;11.50;;;16.20;99.90;;;;;;4976016;28;20037;-77
2023/06/08 06:10:24;;;;;;;22.02;12.13;;;16.30;99.90;;;;;;4956407;28;20030;-77
2023/06/08 06:12:50;;;;;;;17.48;10.93;;;16.40;99.90;;;;;;4957250;28;20516;-78
2023/06/08 06:15:16;;;;;;;15.77;11.65;;;16.50;99.90;;;;;;4974918;28;20056;-76
2023/06/08 06:17:42;;;;;;;19.63;11.68;;;16.70;99.90;;;;;;4974022;28;20038;-78
2023/06/08 06:20:08;;;;;;;22.88;12.40;;;16.80;99.90;;;;;;4990265;28;20038;-77
2023/06/08 06:22:33;;;;;;;17.00;12.02;;;16.90;99.90;;;;;;4971102;28;20038;-77
2023/06/08 06:24:59;;;;;;;18.88;11.73;;;17.00;99.90;;;;;;4959595;28;20072;-77
2023/06/08 06:27:25;;;;;;;18.20;11.57;;;17.20;99.90;;;;;;4957491;28;20045;-77
2023/06/08 06:29:50;;;;;;;22.60;12.10;;;17.40;99.90;;;;;;4974041;28;20088;-77
2023/06/08 06:32:16;;;;;;;20.75;11.27;;;17.60;99.90;;;;;;4990003;28;20034;-77
2023/06/08 06:34:44;;;;;;;21.95;11.20;;;17.80;99.90;;;;;;4975024;28;20034;-77
2023/06/08 06:37:10;;;;;;;18.20;11.45;;;18.40;99.90;;;;;;4950433;28;20482;-78
2023/06/08 06:39:35;;;;;;;21.98;11.68;;;18.90;99.90;;;;;;4981246;28;20038;-78
2023/06/08 06:42:01;;;;;;;19.55;11.48;;;19.40;99.90;;;;;;4962646;28;20034;-77
2023/06/08 06:44:27;;;;;;;21.45;10.98;;;19.90;99.90;;;;;;4963385;28;20034;-77
2023/06/08 06:46:53;;;;;;;21.42;10.55;;;20.50;99.90;;;;;;4971346;28;20524;-78
2023/06/08 06:49:18;;;;;;;19.73;10.07;;;20.90;99.90;;;;;;4948287;28;20153;-78
2023/06/08 06:51:44;;;;;;;17.05;11.15;;;21.40;99.40;;;;;;4975306;28;20041;-77
2023/06/08 06:54:09;;;;;;;20.13;10.07;;;21.80;98.50;;;;;;4972792;28;20092;-78
2023/06/08 06:56:35;;;;;;;17.60;10.82;;;22.20;98.00;;;;;;4973879;28;20038;-80
2023/06/08 06:59:01;;;;;;;15.32;8.30;;;22.70;96.50;;;;;;4960514;28;20042;-80
2023/06/08 07:01:26;;;;;;;15.60;9.95;;;22.90;96.40;;;;;;4973352;28;20038;-80
2023/06/08 07:03:52;;;;;;;19.08;10.38;;;23.20;96.60;;;;;;4965828;28;20470;-80
2023/06/08 07:06:22;;;;;;;18.35;10.10;;;23.70;94.10;;;;;;4966996;28;20033;-81
2023/06/08 07:08:48;;;;;;;14.77;7.60;;;24.10;93.40;;;;;;4962331;28;20026;-80
2023/06/08 07:11:14;;;;;;;17.83;10.55;;;24.20;93.80;;;;;;4966310;28;20084;-80
2023/06/08 07:13:39;;;;;;;15.77;9.93;;;24.50;94.50;;;;;;4962365;28;20046;-79
2023/06/08 07:16:05;;;;;;;19.58;11.85;;;24.90;93.60;;;;;;4968052;28;20033;-79
2023/06/08 07:18:31;;;;;;;16.98;10.30;;;25.10;92.50;;;;;;4976673;28;20689;-80
2023/06/08 07:20:56;;;;;;;15.43;10.13;;;25.50;91.00;;;;;;4978130;28;20040;-80
2023/06/08 07:23:22;;;;;;;18.90;8.73;;;25.80;89.60;;;;;;4959367;28;20042;-80
2023/06/08 07:25:47;;;;;;;12.73;8.95;;;26.00;90.90;;;;;;4975995;28;20085;-80
2023/06/08 07:28:13;;;;;;;12.82;9.05;;;26.40;90.00;;;;;;4959155;28;20125;-80
2023/06/08 07:30:38;;;;;;;19.83;10.05;;;26.50;90.00;;;;;;4962212;28;20077;-81
2023/06/08 07:33:04;;;;;;;13.98;9.65;;;26.60;88.70;;;;;;4970154;28;20026;-82
2023/06/08 07:35:30;;;;;;;12.75;8.85;;;26.70;88.90;;;;;;4985149;28;20064;-81
2023/06/08 07:37:55;;;;;;;13.15;8.50;;;27.00;86.10;;;;;;4943254;28;20054;-80
2023/06/08 07:40:21;;;;;;;13.60;7.95;;;27.10;85.90;;;;;;4959256;28;20038;-81
2023/06/08 07:42:47;;;;;;;12.85;8.65;;;27.30;83.40;;;;;;4972307;28;20052;-80
2023/06/08 07:45:12;;;;;;;13.25;7.38;;;27.40;82.20;;;;;;4954036;28;20030;-80
2023/06/08 07:47:38;;;;;;;11.93;7.05;;;27.50;82.30;;;;;;4977986;28;20022;-80
2023/06/08 07:50:05;;;;;;;14.82;7.80;;;27.60;81.30;;;;;;4974514;28;20402;-80
2023/06/08 07:52:31;;;;;;;11.63;9.05;;;27.80;81.40;;;;;;4959112;28;20034;-81
2023/06/08 07:54:57;;;;;;;10.82;7.38;;;27.90;78.10;;;;;;4957855;28;20514;-80
2023/06/08 07:57:22;;;;;;;21.08;8.07;;;28.00;76.90;;;;;;4967210;28;20093;-80
2023/06/08 07:59:48;;;;;;;13.68;8.10;;;27.80;78.90;;;;;;4961103;28;20030;-81
2023/06/08 08:02:14;;;;;;;14.57;7.90;;;27.60;76.20;;;;;;4963818;28;20038;-81
2023/06/08 08:04:39;;;;;;;11.50;7.25;;;27.40;78.20;;;;;;4955308;28;20116;-81
2023/06/08 08:07:05;;;;;;;14.25;8.60;;;27.50;77.70;;;;;;4964501;28;20201;-82
2023/06/08 08:09:30;;;;;;;14.43;8.93;;;27.60;77.60;;;;;;4987914;28;20088;-81
2023/06/08 08:11:56;;;;;;;15.02;8.82;;;27.60;75.40;;;;;;4961630;28;20501;-81
2023/06/08 08:14:22;;;;;;;11.32;8.23;;;27.70;75.00;;;;;;4944243;28;20121;-81
2023/06/08 08:16:47;;;;;;;18.50;9.93;;;27.70;76.40;;;;;;4963655;28;20101;-81
2023/06/08 08:19:13;;;;;;;17.48;9.18;;;27.90;75.40;;;;;;4966037;28;20023;-81
2023/06/08 08:21:38;;;;;;;14.40;8.75;;;28.00;73.80;;;;;;4967866;28;20475;-81
2023/06/08 08:24:05;;;;;;;12.95;9.30;;;28.20;74.30;;;;;;4988831;28;20033;-81
2023/06/08 08:26:31;;;;;;;13.43;8.98;;;28.40;74.50;;;;;;4972959;28;20038;-81
2023/06/08 08:28:56;;;;;;;13.35;9.07;;;28.50;74.60;;;;;;4974468;28;20494;-82
2023/06/08 08:31:22;;;;;;;17.35;10.48;;;28.70;74.20;;;;;;4993120;28;20030;-81
2023/06/08 08:33:48;;;;;;;17.35;9.35;;;28.90;72.30;;;;;;4960489;28;20026;-82
2023/06/08 08:36:17;;;;;;;14.43;9.45;;;29.10;72.70;;;;;;4957330;28;20165;-83
2023/06/08 08:38:42;;;;;;;16.35;10.25;;;29.10;72.80;;;;;;4943959;28;20090;-84
2023/06/08 08:41:45;;;;;;;13.45;9.40;;;29.30;69.70;;;;;;4977724;28;20022;-83
2023/06/08 08:44:15;;;;;;;14.05;7.40;;;29.40;71.60;;;;;;4967443;28;20347;-82
2023/06/08 08:46:42;;;;;;;11.88;7.20;;;29.50;70.20;;;;;;4962638;28;20050;-82
2023/06/08 08:49:15;;;;;;;12.27;8.48;;;29.50;70.50;;;;;;4967155;28;20094;-82
2023/06/08 08:51:43;;;;;;;15.98;7.40;;;29.50;69.80;;;;;;4952837;28;20030;-83
2023/06/08 08:54:12;;;;;;;16.45;7.55;;;29.50;70.60;;;;;;4990469;28;20065;-84
2023/06/08 08:56:38;;;;;;;12.18;7.38;;;29.70;69.90;;;;;;4982292;28;20097;-83
2023/06/08 08:59:11;;;;;;;17.45;9.27;;;29.90;69.70;;;;;;4987470;28;20033;-84
2023/06/08 09:01:39;;;;;;;11.38;8.48;;;29.70;70.70;;;;;;4974112;28;20030;-84
2023/06/08 09:04:08;;;;;;;10.70;8.73;;;30.10;69.20;;;;;;5001085;28;20037;-84
2023/06/08 09:06:36;;;;;;;16.90;8.35;;;30.20;68.40;;;;;;4961027;28;20074;-83
2023/06/08 09:09:03;;;;;;;11.43;6.57;;;30.30;66.90;;;;;;4967962;28;20033;-83
2023/06/08 09:11:29;;;;;;;9.68;6.20;;;30.30;68.90;;;;;;4962056;28;20029;-82
2023/06/08 09:14:08;;;;;;;15.40;9.38;;;30.50;68.70;;;;;;4970664;28;20057;-82
2023/06/08 09:16:45;;;;;;;15.18;8.60;;;30.80;66.70;;;;;;4986472;28;20030;-83
2023/06/08 09:19:11;;;;;;;12.95;8.95;;;30.80;67.70;;;;;;4991594;28;20097;-82
2023/06/08 09:21:37;;;;;;;13.77;8.73;;;30.90;65.70;;;;;;4952983;28;20062;-81
2023/06/08 09:24:12;;;;;;;10.35;5.90;;;31.00;65.20;;;;;;4958666;28;20026;-82
2023/06/08 09:26:45;;;;;;;14.30;9.07;;;31.00;66.90;;;;;;4974118;28;20162;-82
2023/06/08 09:29:12;;;;;;;13.35;9.57;;;31.20;66.00;;;;;;4964315;28;20706;-82
2023/06/08 09:31:40;;;;;;;11.77;7.32;;;31.40;65.90;;;;;;4974897;28;20482;-83
2023/06/08 09:34:09;;;;;;;13.77;8.07;;;31.50;66.30;;;;;;4960642;28;20505;-82
2023/06/08 09:36:37;;;;;;;17.10;10.88;;;31.60;66.10;;;;;;4961419;28;20033;-83
2023/06/08 09:39:06;;;;;;;14.98;10.35;;;31.80;64.90;;;;;;4957693;28;20038;-84
2023/06/08 09:41:33;;;;;;;15.25;10.15;;;31.80;63.50;;;;;;4962214;28;20073;-84
2023/06/08 09:43:59;;;;;;;14.60;10.00;;;31.90;64.60;;;;;;4975465;28;20061;-83
2023/06/08 09:46:35;;;;;;;9.60;6.43;;;32.10;64.40;;;;;;4957504;28;20086;-84
2023/06/08 09:49:03;;;;;;;13.35;7.95;;;32.10;64.40;;;;;;4967870;28;20030;-83
2023/06/08 09:51:29;;;;;;;14.82;10.70;;;32.20;63.50;;;;;;4948472;28;20394;-83
2023/06/08 09:53:57;;;;;;;14.43;9.75;;;32.30;62.70;;;;;;4976671;28;20026;-81
2023/06/08 09:56:25;;;;;;;15.75;8.75;;;32.40;61.60;;;;;;4993779;28;20513;-83
2023/06/08 09:58:58;;;;;;;11.88;8.85;;;32.40;63.20;;;;;;4991293;28;20030;-83
2023/06/08 10:01:54;;;;;;;14.10;8.02;;;32.60;61.90;;;;;;4967008;28;20031;-84
2023/06/08 10:04:31;;;;;;;12.80;8.05;;;32.70;61.40;;;;;;4973191;28;20501;-84
2023/06/08 10:07:00;;;;;;;12.75;7.95;;;32.80;61.70;;;;;;4962599;28;20029;-84
2023/06/08 10:09:29;;;;;;;9.52;7.20;;;32.80;61.20;;;;;;4972379;28;20179;-85
2023/06/08 10:11:59;;;;;;;9.63;7.60;;;32.80;62.40;;;;;;4962231;28;20115;-84
2023/06/08 10:14:26;;;;;;;11.73;8.68;;;33.00;61.90;;;;;;4975048;28;20057;-84
2023/06/08 10:16:53;;;;;;;13.27;9.50;;;33.10;61.10;;;;;;4971972;28;20026;-83
2023/06/08 10:19:18;;;;;;;9.48;8.43;;;33.30;60.80;;;;;;4988851;28;20026;-80
2023/06/08 10:21:45;;;;;;;15.43;10.10;;;33.50;60.40;;;;;;4997561;28;20159;-80
2023/06/08 10:24:10;;;;;;;13.00;9.25;;;33.70;59.30;;;;;;4977204;28;20042;-81
2023/06/08 10:26:36;;;;;;;11.02;8.32;;;33.80;59.60;;;;;;4979013;28;20373;-81
2023/06/08 10:29:04;;;;;;;8.95;6.30;;;33.80;59.10;;;;;;4995512;28;20052;-81
2023/06/08 10:31:30;;;;;;;15.02;9.25;;;33.80;60.20;;;;;;4953667;28;20037;-81
2023/06/08 10:33:58;;;;;;;13.25;8.43;;;33.90;59.70;;;;;;4974114;28;20548;-81
2023/06/08 10:36:32;;;;;;;13.35;9.70;;;34.00;59.30;;;;;;4953779;28;20035;-81
2023/06/08 10:39:00;;;;;;;12.65;8.07;;;34.20;57.30;;;;;;4968704;28;20514;-81
2023/06/08 10:41:55;;;;;;;13.00;8.52;;;34.30;58.70;;;;;;4990480;28;20034;-80
2023/06/08 10:44:35;;;;;;;11.48;7.63;;;34.40;58.00;;;;;;4978727;28;20054;-80
2023/06/08 10:47:07;;;;;;;13.63;9.35;;;34.40;57.90;;;;;;4974689;28;20040;-79
2023/06/08 10:49:37;;;;;;;10.80;7.70;;;34.50;56.60;;;;;;4977844;28;20033;-80
2023/06/08 10:52:07;;;;;;;12.20;7.75;;;34.50;58.20;;;;;;4996498;28;20490;-80
2023/06/08 10:54:49;;;;;;;11.10;7.72;;;34.50;57.70;;;;;;4960967;28;20049;-80
2023/06/08 10:57:54;;;;;;;10.80;7.05;;;34.70;57.90;;;;;;4960480;28;20030;-80
2023/06/08 11:00:28;;;;;;;11.45;8.55;;;34.90;57.30;;;;;;4977533;28;20038;-79
2023/06/08 11:02:54;;;;;;;13.32;7.85;;;35.00;56.00;;;;;;4986211;28;20057;-81
2023/06/08 11:05:20;;;;;;;11.18;8.30;;;34.90;57.00;;;;;;4990456;28;20697;-78
2023/06/08 11:07:46;;;;;;;12.57;8.68;;;35.10;56.20;;;;;;4993166;28;20486;-80
2023/06/08 11:10:11;;;;;;;13.68;9.68;;;35.30;54.30;;;;;;4978273;28;20025;-81
2023/06/08 11:12:37;;;;;;;10.73;8.68;;;35.10;55.40;;;;;;4992334;28;20053;-81
2023/06/08 11:15:03;;;;;;;8.00;6.22;;;35.10;55.50;;;;;;4987263;28;20811;-80
2023/06/08 11:17:29;;;;;;;12.50;8.82;;;35.10;56.20;;;;;;4996871;28;20029;-80
2023/06/08 11:19:54;;;;;;;10.05;5.97;;;35.30;54.60;;;;;;4992476;28;20164;-79
2023/06/08 11:22:23;;;;;;;10.15;7.50;;;35.20;56.00;;;;;;4976169;28;20561;-79
2023/06/08 11:24:50;;;;;;;10.65;7.43;;;35.30;55.80;;;;;;4972235;28;20050;-83
2023/06/08 11:27:17;;;;;;;11.23;8.27;;;35.30;56.00;;;;;;4973555;28;20037;-83
2023/06/08 11:29:45;;;;;;;11.55;7.93;;;35.40;55.20;;;;;;4987309;28;20042;-84
2023/06/08 11:32:12;;;;;;;8.88;7.20;;;35.70;54.10;;;;;;4981908;28;20121;-84
2023/06/08 11:34:38;;;;;;;10.75;6.07;;;35.50;55.20;;;;;;4975391;28;20143;-84
2023/06/08 11:37:04;;;;;;;12.00;7.22;;;35.60;55.30;;;;;;4979059;28;20437;-84
2023/06/08 11:39:33;;;;;;;11.18;7.00;;;35.70;55.00;;;;;;4974337;28;20061;-85
2023/06/08 11:42:02;;;;;;;9.52;6.80;;;35.70;54.20;;;;;;4977592;28;20582;-85
2023/06/08 11:44:30;;;;;;;9.13;7.40;;;35.80;52.50;;;;;;4988539;28;20045;-84
2023/06/08 11:46:56;;;;;;;8.85;5.93;;;35.70;52.50;;;;;;4966424;28;20141;-86
2023/06/08 11:49:22;;;;;;;8.20;6.68;;;35.40;54.80;;;;;;4968684;28;20062;-85
2023/06/08 11:51:49;;;;;;;7.35;5.53;;;35.50;53.80;;;;;;4967182;28;20042;-85
2023/06/08 11:54:15;;;;;;;13.77;7.03;;;35.50;53.30;;;;;;4978639;28;20045;-85
2023/06/08 11:56:45;;;;;;;8.70;6.90;;;35.50;53.10;;;;;;4974862;28;20088;-85
2023/06/08 11:59:14;;;;;;;6.85;5.60;;;35.40;52.50;;;;;;4969543;28;20031;-85
2023/06/08 12:01:58;;;;;;;13.13;6.68;;;35.50;53.80;;;;;;4949465;28;20045;-85
2023/06/08 12:04:31;;;;;;;7.85;5.95;;;35.60;53.80;;;;;;4963733;28;20036;-85
2023/06/08 12:06:58;;;;;;;8.85;6.68;;;35.70;53.90;;;;;;4989213;28;20128;-83
2023/06/08 12:09:23;;;;;;;7.55;6.20;;;35.70;53.20;;;;;;4988530;28;20037;-85
2023/06/08 12:11:50;;;;;;;6.97;6.28;;;35.90;52.80;;;;;;4976671;28;20034;-84
2023/06/08 12:14:15;;;;;;;8.95;6.22;;;36.00;53.20;;;;;;4977033;28;20029;-84
2023/06/08 12:16:44;;;;;;;7.50;6.00;;;35.90;51.50;;;;;;4958530;28;20481;-85
2023/06/08 12:19:09;;;;;;;7.80;6.65;;;35.70;52.40;;;;;;4946736;28;20030;-86
2023/06/08 12:21:44;;;;;;;6.93;5.68;;;35.60;52.20;;;;;;4960546;28;20717;-84
2023/06/08 12:24:10;;;;;;;9.23;6.90;;;35.70;53.40;;;;;;4981426;28;20101;-85
2023/06/08 12:26:35;;;;;;;9.02;6.00;;;35.80;51.20;;;;;;4975661;28;20057;-85
2023/06/08 12:29:05;;;;;;;7.13;6.05;;;35.80;52.00;;;;;;4972713;28;20434;-84
2023/06/08 12:31:31;;;;;;;7.53;6.47;;;35.90;53.30;;;;;;4944767;28;20027;-86
2023/06/08 12:33:56;;;;;;;6.10;5.50;;;36.00;52.40;;;;;;4957846;28;20085;-85
2023/06/08 12:36:22;;;;;;;9.25;5.95;;;36.20;51.50;;;;;;4970009;28;20698;-85